Time;durP1;ratioP1;P1;durP2;ratioP2;P2;SDS_P1;SDS_P2;PMS_P1;PMS_P2;Temp;Humidity;BMP_temperature;BMP_pressure;BME280_temperature;BME280_humidity;BME280_pressure;Samples;Min_cycle;Max_cycle;Signal;HPM_P1;HPM_P2
2023/07/08 00:01:50;;;;;;;10.30;6.00;;;;;;;22.50;36.99;99768.66;10318127;28;20268;-35
2023/07/08 00:06:52;;;;;;;9.13;6.53;;;;;;;21.31;38.07;99821.31;10307543;28;20258;-35
2023/07/08 00:11:53;;;;;;;8.40;5.68;;;;;;;22.92;36.12;99786.88;10320713;28;20229;-36
2023/07/08 00:16:55;;;;;;;9.02;6.30;;;;;;;21.48;38.09;99810.38;10318047;28;20245;-36
2023/07/08 00:21:57;;;;;;;8.65;5.32;;;;;;;23.31;35.88;99789.19;10315549;28;20262;-35
2023/07/08 00:26:59;;;;;;;8.00;5.53;;;;;;;21.57;37.35;99851.56;10327649;28;20246;-35
2023/07/08 00:32:00;;;;;;;12.13;6.63;;;;;;;21.14;38.79;99826.84;10324462;28;20230;-35
2023/07/08 00:37:04;;;;;;;9.23;6.43;;;;;;;19.85;41.21;99796.16;10321756;28;20257;-35
2023/07/08 00:42:15;;;;;;;9.90;6.25;;;;;;;21.10;38.89;99812.09;10323204;28;20682;-34
2023/07/08 00:47:17;;;;;;;7.18;5.82;;;;;;;19.28;41.66;99783.44;10320564;28;20236;-35
2023/07/08 00:52:23;;;;;;;10.20;6.38;;;;;;;20.21;40.08;99803.03;10323754;28;20241;-35
2023/07/08 00:57:31;;;;;;;9.55;6.22;;;;;;;20.24;40.21;99818.78;10314119;28;20234;-35
2023/07/08 01:02:38;;;;;;;10.18;5.78;;;;;;;21.76;38.14;99749.38;10326196;28;20244;-35
2023/07/08 01:07:43;;;;;;;10.30;6.20;;;;;;;21.08;38.62;99808.00;10322770;28;20248;-35
2023/07/08 01:12:49;;;;;;;10.35;6.70;;;;;;;21.22;38.25;99820.97;10331209;28;20295;-36
2023/07/08 01:17:53;;;;;;;7.50;5.38;;;;;;;21.34;38.83;99782.72;10316699;28;20289;-36
2023/07/08 01:22:55;;;;;;;9.88;6.18;;;;;;;21.24;38.44;99807.91;10323101;28;20220;-35
2023/07/08 01:27:57;;;;;;;9.00;6.15;;;;;;;20.97;38.61;99843.25;10322926;28;20242;-36
2023/07/08 01:33:04;;;;;;;10.10;5.88;;;;;;;22.86;36.71;99802.41;10324913;28;20233;-36
2023/07/08 01:38:10;;;;;;;8.52;5.68;;;;;;;21.26;38.89;99791.34;10322934;28;20229;-36
2023/07/08 01:43:12;;;;;;;9.75;6.43;;;;;;;22.18;37.40;99820.53;10323749;28;20242;-36
2023/07/08 01:48:18;;;;;;;10.70;6.60;;;;;;;21.43;38.36;99851.16;10321450;28;20226;-36
2023/07/08 01:53:27;;;;;;;10.20;6.07;;;;;;;21.15;39.41;99786.84;10332917;28;20272;-35
2023/07/08 01:58:29;;;;;;;8.40;5.70;;;;;;;21.80;37.33;99834.09;10321656;28;20254;-36
2023/07/08 02:03:31;;;;;;;10.00;6.10;;;;;;;21.65;38.03;99791.19;10331539;28;20248;-36
2023/07/08 02:08:33;;;;;;;8.80;6.22;;;;;;;20.71;39.06;99852.09;10325323;28;20284;-36
2023/07/08 02:13:34;;;;;;;8.85;6.18;;;;;;;20.11;40.11;99847.09;10326362;28;20225;-35
2023/07/08 02:18:36;;;;;;;9.90;6.13;;;;;;;19.38;41.58;99802.63;10319883;28;20234;-36
2023/07/08 02:23:39;;;;;;;10.68;6.03;;;;;;;19.29;41.30;99831.22;10326350;28;20355;-35
2023/07/08 02:28:41;;;;;;;9.55;6.50;;;;;;;18.13;43.18;99794.78;10316016;28;20238;-35
2023/07/08 02:33:43;;;;;;;9.63;6.75;;;;;;;18.15;43.12;99791.84;10321818;28;20237;-35
2023/07/08 02:38:44;;;;;;;7.88;5.63;;;;;;;17.93;43.38;99795.13;10322781;28;20241;-35
2023/07/08 02:43:46;;;;;;;8.63;5.88;;;;;;;18.54;42.29;99774.09;10331042;28;20234;-35
2023/07/08 02:48:48;;;;;;;10.85;6.80;;;;;;;18.21;42.42;99799.03;10323193;28;20257;-35
2023/07/08 02:53:50;;;;;;;10.20;6.47;;;;;;;18.20;42.48;99778.44;10322479;28;20311;-35
2023/07/08 02:58:53;;;;;;;9.57;5.80;;;;;;;19.35;41.15;99729.84;10319364;28;21026;-35
2023/07/08 03:03:58;;;;;;;11.35;6.32;;;;;;;18.82;41.57;99780.63;10323309;28;20708;-35
2023/07/08 03:09:00;;;;;;;9.75;6.50;;;;;;;19.30;41.04;99782.16;10324255;28;20257;-36
2023/07/08 03:14:02;;;;;;;12.27;6.13;;;;;;;18.69;41.87;99811.50;10319096;28;20814;-35
2023/07/08 03:19:05;;;;;;;9.70;6.15;;;;;;;19.28;41.23;99754.44;10323802;28;20233;-36
2023/07/08 03:24:13;;;;;;;10.13;5.80;;;;;;;19.33;40.83;99867.66;10319543;28;20242;-36
2023/07/08 03:29:18;;;;;;;8.18;5.88;;;;;;;18.53;41.85;99859.16;10319716;28;20234;-36
2023/07/08 03:34:19;;;;;;;8.00;5.93;;;;;;;18.09;41.89;99861.31;10323724;28;20233;-35
2023/07/08 03:39:23;;;;;;;8.40;5.67;;;;;;;18.83;41.38;99821.06;10309395;28;20266;-36
2023/07/08 03:44:25;;;;;;;7.27;5.40;;;;;;;18.13;42.21;99848.94;10327554;28;20751;-35
2023/07/08 03:49:27;;;;;;;8.52;5.78;;;;;;;18.21;42.57;99818.81;10322613;28;21046;-35
2023/07/08 03:54:29;;;;;;;10.25;6.93;;;;;;;17.93;42.31;99843.84;10329461;28;20381;-36
2023/07/08 03:59:30;;;;;;;9.73;5.78;;;;;;;17.58;42.63;99828.31;10328931;28;20226;-36
2023/07/08 04:04:32;;;;;;;9.67;6.20;;;;;;;17.95;42.28;99839.06;10324834;28;20268;-35
2023/07/08 04:09:34;;;;;;;11.05;6.30;;;;;;;18.73;41.74;99755.78;10322099;28;20236;-35
2023/07/08 04:14:36;;;;;;;8.77;6.17;;;;;;;19.90;39.97;99794.34;10325397;28;20245;-35
2023/07/08 04:19:39;;;;;;;9.35;5.80;;;;;;;21.16;38.03;99861.97;10326329;28;20634;-35
2023/07/08 04:24:41;;;;;;;8.68;5.68;;;;;;;20.29;39.05;99918.59;10333515;28;20615;-36
2023/07/08 04:29:43;;;;;;;8.18;5.38;;;;;;;19.72;40.82;99917.56;10322042;28;20266;-35
2023/07/08 04:34:45;;;;;;;8.27;5.20;;;;;;;20.10;40.30;99871.78;10326092;28;20707;-35
2023/07/08 04:39:47;;;;;;;9.02;4.75;;;;;;;20.27;39.50;100003.06;10325989;28;20711;-35
2023/07/08 04:44:49;;;;;;;9.43;5.82;;;;;;;21.42;39.00;99923.81;10332842;28;20229;-35
2023/07/08 04:49:51;;;;;;;9.02;5.38;;;;;;;19.81;39.52;100053.75;10318503;28;20324;-35
2023/07/08 04:54:53;;;;;;;7.93;5.10;;;;;;;22.51;37.57;99996.63;10323668;28;20648;-35
2023/07/08 04:59:54;;;;;;;10.18;5.93;;;;;;;20.45;40.32;100069.97;10318890;28;20241;-35
2023/07/08 05:04:56;;;;;;;10.00;6.38;;;;;;;19.71;41.46;100042.69;10328314;28;20232;-35
2023/07/08 05:09:58;;;;;;;7.72;5.50;;;;;;;19.62;41.69;100008.81;10321037;28;20241;-35
2023/07/08 05:15:00;;;;;;;8.82;5.45;;;;;;;18.90;44.11;99959.19;10321368;28;20230;-35
2023/07/08 05:20:03;;;;;;;8.13;4.95;;;;;;;19.74;46.09;99860.31;10315951;28;20959;-34
2023/07/08 05:25:06;;;;;;;6.32;4.47;;;;;;;20.61;45.77;99894.34;10324395;28;20258;-35
2023/07/08 05:30:10;;;;;;;9.85;4.57;;;;;;;19.67;48.53;99859.63;10316749;28;20253;-34
2023/07/08 05:35:12;;;;;;;5.28;3.58;;;;;;;19.81;49.06;99898.19;10318461;28;20226;-33
2023/07/08 05:40:15;;;;;;;6.30;3.50;;;;;;;21.17;46.27;99890.81;10323148;28;20288;-33
2023/07/08 05:45:17;;;;;;;5.38;3.38;;;;;;;21.37;46.12;99950.97;10325571;28;20300;-34
2023/07/08 05:50:18;;;;;;;7.00;3.72;;;;;;;21.46;46.05;99937.75;10327046;28;20229;-33
2023/07/08 05:55:20;;;;;;;5.00;3.33;;;;;;;20.95;47.08;99945.19;10326303;28;20580;-34
2023/07/08 06:00:22;;;;;;;6.28;3.53;;;;;;;21.59;46.68;99890.22;10327028;28;20284;-34
2023/07/08 06:05:39;;;;;;;5.13;3.50;;;;;;;21.77;46.38;99913.56;10327700;28;20327;-34
2023/07/08 06:10:44;;;;;;;4.43;3.13;;;;;;;21.75;46.81;99911.09;10323040;28;20719;-34
2023/07/08 06:15:45;;;;;;;6.50;3.45;;;;;;;22.04;46.34;99938.13;10323671;28;20313;-34
2023/07/08 06:20:56;;;;;;;4.40;3.30;;;;;;;21.85;46.58;100013.91;10321140;28;20234;-34
2023/07/08 06:25:58;;;;;;;5.93;3.70;;;;;;;22.49;46.25;99972.31;10326183;28;20400;-34
2023/07/08 06:31:00;;;;;;;7.45;3.88;;;;;;;22.21;47.00;99959.00;10334134;28;21026;-34
2023/07/08 06:36:02;;;;;;;6.88;3.28;;;;;;;23.14;46.02;99950.44;10317285;28;20237;-34
2023/07/08 06:41:04;;;;;;;4.68;2.53;;;;;;;22.62;47.53;99959.34;10328252;28;20232;-34
2023/07/08 06:46:06;;;;;;;5.30;2.78;;;;;;;21.96;47.68;100006.69;10315808;28;20235;-34
2023/07/08 06:51:08;;;;;;;8.50;2.65;;;;;;;22.16;47.01;99963.28;10331426;28;20209;-34
2023/07/08 06:56:10;;;;;;;4.70;2.63;;;;;;;21.58;47.82;99989.34;10322162;28;20279;-34
2023/07/08 07:01:13;;;;;;;4.72;3.03;;;;;;;23.30;45.83;99942.31;10330782;28;20240;-34
2023/07/08 07:06:14;;;;;;;3.90;2.50;;;;;;;22.08;47.41;100009.25;10324013;28;20813;-34
2023/07/08 07:11:19;;;;;;;4.93;2.92;;;;;;;22.42;47.38;99960.81;10330489;28;20234;-34
2023/07/08 07:16:20;;;;;;;4.40;2.60;;;;;;;21.55;48.46;100017.88;10328576;28;20739;-34
2023/07/08 07:21:22;;;;;;;4.30;2.90;;;;;;;22.55;47.06;99966.94;10324071;28;20229;-34
2023/07/08 07:26:24;;;;;;;5.70;2.65;;;;;;;22.25;46.63;99992.81;10323551;28;20265;-34
2023/07/08 07:31:26;;;;;;;3.15;2.28;;;;;;;23.04;46.02;99953.09;10322999;28;20234;-34
2023/07/08 07:36:28;;;;;;;3.03;2.45;;;;;;;24.06;44.06;99992.88;10322307;28;20664;-34
2023/07/08 07:41:30;;;;;;;6.45;2.35;;;;;;;23.50;45.45;100013.44;10325502;28;20213;-34
2023/07/08 07:46:32;;;;;;;5.47;2.72;;;;;;;24.48;43.96;99989.94;10326531;28;20280;-34
2023/07/08 07:51:34;;;;;;;3.50;2.80;;;;;;;23.84;44.33;100061.38;10336319;28;20229;-35
2023/07/08 07:56:36;;;;;;;2.95;2.35;;;;;;;24.21;42.94;100046.78;10336274;28;20242;-34
2023/07/08 08:01:38;;;;;;;3.08;1.80;;;;;;;23.10;44.21;100090.44;10343242;28;20238;-34
2023/07/08 08:06:40;;;;;;;3.45;2.08;;;;;;;24.58;42.58;100051.19;10326175;28;20904;-34
2023/07/08 08:11:41;;;;;;;3.72;2.20;;;;;;;24.14;42.87;100047.00;10335271;28;20616;-34
2023/07/08 08:16:44;;;;;;;3.80;2.35;;;;;;;23.48;43.07;100083.84;10316476;28;20249;-34
2023/07/08 08:21:46;;;;;;;6.63;1.90;;;;;;;24.71;41.83;100051.53;10329771;28;20316;-35
2023/07/08 08:26:48;;;;;;;3.17;2.05;;;;;;;25.31;40.19;100037.25;10334012;28;20238;-35
2023/07/08 08:31:50;;;;;;;2.85;2.05;;;;;;;25.44;39.64;100041.34;10323208;28;20303;-35
2023/07/08 08:36:55;;;;;;;2.97;1.83;;;;;;;24.56;39.80;100095.25;10321373;28;20240;-33
2023/07/08 08:41:57;;;;;;;4.35;2.13;;;;;;;25.21;39.74;100072.88;10367566;28;20678;-33
2023/07/08 08:47:19;;;;;;;3.47;2.00;;;;;;;26.13;39.05;100042.44;10356205;28;20229;-33
2023/07/08 08:52:21;;;;;;;3.63;2.28;;;;;;;25.83;39.01;100081.78;10369757;28;20209;-33
2023/07/08 08:57:46;;;;;;;3.95;2.35;;;;;;;26.06;38.92;100058.34;10363695;28;20245;-33
2023/07/08 09:02:48;;;;;;;2.92;2.15;;;;;;;26.02;39.16;100093.75;10363592;28;20723;-33
2023/07/08 09:08:02;;;;;;;3.65;1.60;;;;;;;25.63;38.63;100094.41;10371165;28;20320;-33
2023/07/08 09:13:06;;;;;;;4.75;1.80;;;;;;;25.76;38.59;100082.06;10366339;28;20240;-34
2023/07/08 09:18:25;;;;;;;5.57;1.92;;;;;;;26.14;37.95;100078.88;10357778;28;20273;-33
2023/07/08 09:23:32;;;;;;;2.97;1.95;;;;;;;26.73;37.80;100061.53;10359776;28;21539;-33
2023/07/08 09:28:43;;;;;;;2.67;1.80;;;;;;;26.67;37.74;100070.88;10361043;28;20292;-33
2023/07/08 09:33:44;;;;;;;4.57;1.60;;;;;;;27.22;37.14;100046.00;10367217;28;20881;-33
2023/07/08 09:38:48;;;;;;;1.73;1.50;;;;;;;27.07;37.37;100035.94;10362648;28;20233;-33
2023/07/08 09:43:50;;;;;;;2.60;1.60;;;;;;;26.42;37.59;100062.81;10361625;28;20235;-33
2023/07/08 09:48:52;;;;;;;4.00;1.83;;;;;;;26.39;37.99;100062.28;10361799;28;20256;-35
2023/07/08 09:53:54;;;;;;;2.70;1.90;;;;;;;26.94;37.91;100036.63;10366846;28;20311;-36
2023/07/08 09:58:56;;;;;;;3.33;1.63;;;;;;;27.34;37.26;100031.84;10360161;28;20236;-35
2023/07/08 10:04:00;;;;;;;2.47;1.70;;;;;;;28.26;36.42;100007.91;10442050;22;20228;-34
2023/07/08 10:09:18;;;;;;;3.13;1.88;;;;;;;28.17;37.37;100001.38;10431356;28;20319;-35
2023/07/08 10:14:25;;;;;;;3.80;2.08;;;;;;;27.42;37.57;100024.91;10417088;28;20744;-34
2023/07/08 10:19:27;;;;;;;2.85;1.88;;;;;;;28.45;36.71;99999.59;10431511;28;20238;-34
2023/07/08 10:24:54;;;;;;;1.65;1.50;;;;;;;28.21;36.57;100007.97;10436342;28;20767;-35
2023/07/08 10:30:22;;;;;;;3.42;1.65;;;;;;;28.18;37.07;100008.53;10434649;28;20270;-35
2023/07/08 10:35:34;;;;;;;2.53;1.90;;;;;;;28.40;36.61;100005.19;10435144;28;20239;-35
2023/07/08 10:40:47;;;;;;;2.63;1.98;;;;;;;28.68;35.91;100008.88;10434010;28;20235;-34
2023/07/08 10:45:55;;;;;;;4.68;2.08;;;;;;;28.85;35.75;100007.50;10430807;28;20244;-34
2023/07/08 10:51:12;;;;;;;2.45;1.83;;;;;;;28.12;36.14;100023.47;10437342;28;20228;-34
2023/07/08 10:56:23;;;;;;;2.60;1.83;;;;;;;29.88;34.82;99965.75;10435818;28;20239;-34
2023/07/08 11:06:26;;;;;;;2.75;1.83;;;;;;;28.52;36.86;99957.94;10411249;28;20809;-69
2023/07/08 11:11:51;;;;;;;2.78;2.08;;;;;;;28.52;36.30;99968.94;10303574;28;20295;-70
2023/07/08 11:17:06;;;;;;;4.90;2.45;;;;;;;28.75;36.45;99957.00;10341124;28;20241;-69
2023/07/08 11:22:11;;;;;;;2.60;1.90;;;;;;;28.44;36.12;99978.69;10339703;28;20817;-70
2023/07/08 11:27:27;;;;;;;4.32;2.20;;;;;;;27.45;36.08;100005.91;10339887;28;20709;-67
2023/07/08 11:32:32;;;;;;;6.57;2.13;;;;;;;29.12;35.17;99957.97;10342206;28;20256;-68
2023/07/08 11:37:34;;;;;;;3.15;2.30;;;;;;;28.52;35.18;99994.53;10343759;28;20229;-67
2023/07/08 11:42:45;;;;;;;2.42;2.10;;;;;;;28.54;35.79;99994.22;10344650;28;20258;-67
2023/07/08 11:48:05;;;;;;;1.85;1.60;;;;;;;29.01;35.29;99945.50;10344355;28;20237;-67
2023/07/08 11:53:13;;;;;;;5.15;2.08;;;;;;;28.10;36.07;99992.69;10344852;28;20226;-68
2023/07/08 11:58:26;;;;;;;4.10;2.17;;;;;;;28.74;35.47;99963.59;10342778;28;20321;-68
2023/07/08 12:03:39;;;;;;;4.43;2.20;;;;;;;29.15;34.24;99954.63;10341828;28;20314;-68
2023/07/08 12:08:41;;;;;;;2.95;2.00;;;;;;;29.69;34.26;99934.75;10340198;28;20248;-67
2023/07/08 12:13:43;;;;;;;4.85;2.22;;;;;;;29.81;34.57;99925.94;10333848;28;22233;-67
2023/07/08 12:18:46;;;;;;;3.70;1.80;;;;;;;29.50;35.47;99946.72;10315092;28;20245;-68
2023/07/08 12:23:48;;;;;;;4.00;2.30;;;;;;;29.14;35.05;99949.41;10318216;28;20316;-67
2023/07/08 12:28:49;;;;;;;5.53;2.40;;;;;;;30.29;34.94;99919.00;10314967;28;20240;-68
2023/07/08 12:33:51;;;;;;;5.22;2.67;;;;;;;30.90;32.85;99917.38;10315443;28;20750;-67
2023/07/08 12:38:56;;;;;;;5.15;2.45;;;;;;;30.95;33.04;99908.16;10314050;28;20308;-67
2023/07/08 12:43:59;;;;;;;4.63;2.63;;;;;;;30.29;32.88;99913.50;10312894;28;20241;-67
2023/07/08 12:49:01;;;;;;;4.55;2.63;;;;;;;30.76;32.87;99911.16;10306931;28;20266;-67
2023/07/08 12:54:03;;;;;;;6.47;2.92;;;;;;;30.61;33.12;99921.47;10317203;28;20237;-68
2023/07/08 12:59:06;;;;;;;4.75;2.58;;;;;;;30.39;33.75;99924.25;10311510;28;20324;-68
2023/07/08 13:04:11;;;;;;;5.43;2.20;;;;;;;30.78;33.44;99915.22;10307205;28;20317;-68
2023/07/08 13:09:33;;;;;;;4.07;2.30;;;;;;;30.95;33.15;99894.34;10315703;28;20587;-68
2023/07/08 13:14:36;;;;;;;5.78;2.35;;;;;;;30.74;33.06;99921.72;10304322;28;20266;-68
2023/07/08 13:19:38;;;;;;;5.13;2.70;;;;;;;29.60;34.05;99931.09;10308202;28;20620;-67
2023/07/08 13:24:40;;;;;;;3.15;2.25;;;;;;;29.97;33.44;99907.88;10310890;28;20666;-68
2023/07/08 13:29:42;;;;;;;4.95;2.90;;;;;;;30.73;32.04;99906.28;10304326;28;20237;-68
2023/07/08 13:34:44;;;;;;;4.63;2.42;;;;;;;31.51;32.30;99901.00;10311197;28;20229;-68
2023/07/08 13:39:46;;;;;;;4.07;2.55;;;;;;;29.95;32.81;99923.94;10305309;28;20333;-68
2023/07/08 13:44:48;;;;;;;7.13;2.63;;;;;;;30.57;32.74;99892.91;10314538;28;20280;-68
2023/07/08 13:50:17;;;;;;;3.55;2.00;;;;;;;31.29;31.79;99895.56;10309228;28;20255;-68
2023/07/08 13:55:29;;;;;;;3.90;2.60;;;;;;;30.37;31.51;99918.25;10310866;28;20312;-68
2023/07/08 14:00:31;;;;;;;5.47;3.00;;;;;;;30.83;31.49;99914.28;10309767;28;20320;-68
2023/07/08 14:05:33;;;;;;;3.97;2.60;;;;;;;30.79;30.97;99905.81;10301956;28;20341;-68
2023/07/08 14:10:35;;;;;;;7.07;2.60;;;;;;;31.98;30.48;99869.09;10302273;28;20226;-68
2023/07/08 14:15:38;;;;;;;3.25;2.67;;;;;;;31.39;30.75;99888.94;10309964;28;20625;-68
2023/07/08 14:20:40;;;;;;;5.28;2.65;;;;;;;30.89;30.90;99896.44;10308179;28;20705;-68
2023/07/08 14:25:42;;;;;;;6.78;2.50;;;;;;;31.75;29.62;99882.28;10305131;28;20411;-68
2023/07/08 14:30:47;;;;;;;4.07;2.33;;;;;;;31.29;29.87;99899.16;10299035;28;20871;-68
2023/07/08 14:35:49;;;;;;;6.43;2.80;;;;;;;31.03;29.10;99892.75;10302198;28;20793;-68
2023/07/08 14:40:51;;;;;;;8.43;2.65;;;;;;;31.01;29.36;99895.84;10305342;28;20233;-68
2023/07/08 14:45:56;;;;;;;5.25;2.38;;;;;;;31.82;29.35;99886.22;10306963;28;20724;-67
2023/07/08 14:50:58;;;;;;;3.20;2.47;;;;;;;31.38;29.22;99881.75;10304724;28;20229;-67
2023/07/08 14:56:13;;;;;;;3.88;2.55;;;;;;;31.65;28.61;99886.22;10300645;28;20231;-67
2023/07/08 15:01:20;;;;;;;4.43;2.67;;;;;;;31.18;30.17;99898.63;10309640;28;20237;-67
2023/07/08 15:06:23;;;;;;;4.68;2.38;;;;;;;31.48;28.42;99901.66;10305117;28;20716;-68
2023/07/08 15:11:26;;;;;;;4.97;2.92;;;;;;;31.90;29.63;99892.91;10306538;28;20296;-67
2023/07/08 15:16:28;;;;;;;4.50;2.58;;;;;;;31.17;30.47;99860.28;10298439;28;20284;-68
2023/07/08 15:21:29;;;;;;;5.63;2.60;;;;;;;32.81;28.18;99871.50;10310160;28;20292;-67
2023/07/08 15:26:31;;;;;;;3.13;2.17;;;;;;;32.54;28.53;99872.72;10307151;28;20238;-68
2023/07/08 15:31:34;;;;;;;5.65;2.33;;;;;;;32.63;27.31;99869.91;10302490;28;20344;-68
2023/07/08 15:36:36;;;;;;;2.92;2.40;;;;;;;32.65;28.40;99882.28;10312675;28;20237;-67
2023/07/08 15:41:38;;;;;;;4.25;2.40;;;;;;;33.08;28.00;99877.69;10308063;28;20246;-67
2023/07/08 15:46:48;;;;;;;4.13;2.13;;;;;;;32.61;28.10;99886.06;10309151;23;20255;-35
2023/07/08 15:51:50;;;;;;;5.65;2.50;;;;;;;33.06;27.90;99868.06;10278712;28;20234;-35
2023/07/08 15:56:53;;;;;;;3.60;2.60;;;;;;;32.87;27.76;99882.38;10278147;28;20400;-35
2023/07/08 16:02:02;;;;;;;7.18;2.55;;;;;;;32.19;28.05;99891.38;10279500;28;20236;-34
2023/07/08 16:07:04;;;;;;;3.80;2.58;;;;;;;33.39;28.54;99859.88;10277453;28;20321;-34
2023/07/08 16:12:11;;;;;;;3.53;2.30;;;;;;;32.57;27.86;99887.84;10280021;28;20226;-34
2023/07/08 16:17:13;;;;;;;4.00;2.35;;;;;;;32.75;27.75;99874.78;10273210;28;20285;-35
2023/07/08 16:22:14;;;;;;;4.93;2.53;;;;;;;32.46;27.98;99896.53;10277015;28;20309;-34
2023/07/08 16:27:16;;;;;;;3.97;2.15;;;;;;;31.97;28.41;99890.44;10278285;28;20285;-35
2023/07/08 16:32:22;;;;;;;11.15;8.57;;;;;;;33.39;28.06;99865.44;10276454;28;20680;-34
2023/07/08 16:37:24;;;;;;;11.43;9.68;;;;;;;33.88;28.32;99860.13;10279092;28;20230;-34
2023/07/08 16:42:26;;;;;;;4.65;2.80;;;;;;;33.38;28.50;99883.22;10281365;28;20297;-34
2023/07/08 16:47:28;;;;;;;28.05;25.10;;;;;;;32.44;28.02;99901.59;10272095;28;20251;-35
2023/07/08 16:52:31;;;;;;;12.07;9.23;;;;;;;33.43;26.71;99883.00;10272967;28;20602;-34
2023/07/08 16:57:33;;;;;;;18.42;14.98;;;;;;;33.10;28.21;99892.06;10276607;28;20755;-34
2023/07/08 17:02:35;;;;;;;6.70;4.05;;;;;;;32.92;28.21;99887.72;10279751;28;20230;-35
2023/07/08 17:07:37;;;;;;;5.55;3.25;;;;;;;32.82;28.18;99873.09;10272703;28;20238;-34
2023/07/08 17:12:40;;;;;;;4.65;2.80;;;;;;;32.78;27.97;99883.22;10277829;28;20242;-34
2023/07/08 17:17:48;;;;;;;158.82;141.57;;;;;;;33.14;28.42;99862.50;10274907;28;20246;-34
2023/07/08 17:22:50;;;;;;;15.60;11.95;;;;;;;33.36;27.84;99888.28;10276000;28;20715;-34
2023/07/08 17:27:54;;;;;;;5.50;3.58;;;;;;;33.54;28.20;99883.47;10273872;28;20235;-35
2023/07/08 17:32:58;;;;;;;5.32;2.60;;;;;;;32.98;27.83;99914.91;10275181;28;20306;-34
2023/07/08 17:37:59;;;;;;;6.80;4.88;;;;;;;33.60;27.58;99889.59;10271220;28;20301;-35
2023/07/08 17:43:01;;;;;;;8.48;3.03;;;;;;;32.61;28.75;99922.06;10275177;28;20226;-34
2023/07/08 17:48:03;;;;;;;3.78;2.50;;;;;;;32.58;28.64;99925.50;10272540;28;20273;-34
2023/07/08 17:53:16;;;;;;;3.10;2.20;;;;;;;32.62;28.61;99930.00;10273634;28;20301;-34
2023/07/08 17:58:18;;;;;;;6.72;2.92;;;;;;;32.48;28.76;99931.41;10268155;28;20305;-34
2023/07/08 18:03:20;;;;;;;6.20;3.35;;;;;;;33.42;28.50;99911.91;10268960;28;20262;-34
2023/07/08 18:08:22;;;;;;;3.70;2.50;;;;;;;33.18;28.84;99927.22;10274011;28;20325;-43
2023/07/08 18:13:26;;;;;;;9.05;2.80;;;;;;;32.22;30.20;99921.13;10275405;28;20285;-43
2023/07/08 18:18:28;;;;;;;5.60;2.83;;;;;;;33.38;30.18;99911.78;10268208;28;20301;-43
2023/07/08 18:23:34;;;;;;;4.90;3.00;;;;;;;33.48;30.06;99920.81;10269732;28;20258;-42
2023/07/08 18:28:36;;;;;;;6.03;2.85;;;;;;;33.04;30.54;99959.88;10273495;28;20238;-42
2023/07/08 18:33:38;;;;;;;5.57;2.60;;;;;;;33.24;30.35;99950.00;10263236;28;20656;-43
2023/07/08 18:38:40;;;;;;;4.78;2.85;;;;;;;33.07;30.57;99950.09;10274997;28;20289;-43
2023/07/08 18:43:42;;;;;;;4.38;2.80;;;;;;;33.26;30.62;99950.47;10270739;28;20264;-42
2023/07/08 18:48:44;;;;;;;6.00;3.67;;;;;;;33.27;30.85;99960.44;10270691;28;20259;-43
2023/07/08 18:53:46;;;;;;;4.80;3.10;;;;;;;33.15;31.65;99961.16;10272935;28;20246;-43
2023/07/08 18:58:47;;;;;;;5.72;3.45;;;;;;;33.07;31.76;99945.34;10274888;28;20289;-44
2023/07/08 19:03:50;;;;;;;8.93;4.10;;;;;;;33.06;32.07;99946.47;10275027;28;20251;-43
2023/07/08 19:08:52;;;;;;;4.47;3.30;;;;;;;32.74;32.64;99957.06;10271306;28;20330;-42
2023/07/08 19:13:54;;;;;;;5.63;3.00;;;;;;;32.35;33.00;99964.47;10275061;28;20258;-42
2023/07/08 19:18:56;;;;;;;6.57;3.53;;;;;;;32.48;33.73;99961.84;10269356;28;20238;-42
2023/07/08 19:23:59;;;;;;;7.93;5.07;;;;;;;31.42;34.72;99968.47;10276102;28;20246;-42
2023/07/08 19:29:00;;;;;;;8.25;6.18;;;;;;;32.52;33.46;99957.28;10274222;28;20245;-42
2023/07/08 19:34:05;;;;;;;5.97;3.30;;;;;;;31.30;34.08;100000.28;10279039;28;20238;-40
2023/07/08 19:39:09;;;;;;;10.52;7.18;;;;;;;29.57;36.87;99954.53;10274962;28;20235;-42
2023/07/08 19:44:19;;;;;;;7.55;5.50;;;;;;;29.22;37.42;99984.50;10276476;28;20250;-41
2023/07/08 19:49:21;;;;;;;5.40;2.83;;;;;;;27.10;38.91;99985.13;10279322;28;20235;-41
2023/07/08 19:54:24;;;;;;;3.80;2.80;;;;;;;26.69;39.38;99991.03;10282116;28;20235;-42
2023/07/08 19:59:27;;;;;;;5.55;2.92;;;;;;;25.72;39.89;100037.13;10282706;28;20722;-41
2023/07/08 20:04:29;;;;;;;4.50;2.90;;;;;;;27.18;38.00;100009.22;10280686;28;20230;-41
2023/07/08 20:09:31;;;;;;;4.47;2.70;;;;;;;26.58;38.31;100045.16;10277598;28;20648;-42
2023/07/08 20:14:34;;;;;;;3.72;2.78;;;;;;;25.96;38.95;100072.94;10280684;28;20226;-42
2023/07/08 20:19:36;;;;;;;6.10;3.20;;;;;;;27.71;37.36;100066.09;10278876;28;20258;-42
2023/07/08 20:24:37;;;;;;;4.75;2.60;;;;;;;28.37;36.16;100072.63;10278050;28;20235;-40
2023/07/08 20:29:39;;;;;;;6.18;2.90;;;;;;;28.17;36.64;100083.91;10271879;28;20705;-41
2023/07/08 20:34:41;;;;;;;7.15;2.78;;;;;;;27.74;36.93;100090.25;10273110;28;20262;-41
2023/07/08 20:39:43;;;;;;;6.90;3.20;;;;;;;28.68;36.34;100082.38;10274165;28;20238;-41
2023/07/08 20:44:45;;;;;;;11.52;4.00;;;;;;;28.26;36.56;100084.94;10275604;28;20230;-41
2023/07/08 20:49:46;;;;;;;5.97;3.03;;;;;;;28.61;36.25;100088.25;10271324;28;20250;-41
2023/07/08 20:54:49;;;;;;;6.88;2.97;;;;;;;28.29;36.15;100108.25;10274596;28;20667;-41
2023/07/08 20:59:51;;;;;;;6.88;2.53;;;;;;;29.08;35.87;100091.06;10270916;28;20222;-42
2023/07/08 21:04:53;;;;;;;4.68;2.80;;;;;;;28.83;35.97;100097.84;10274323;28;20230;-41
2023/07/08 21:09:55;;;;;;;5.03;2.72;;;;;;;28.08;37.03;100094.75;10261576;28;20614;-42
2023/07/08 21:14:57;;;;;;;9.25;2.95;;;;;;;28.59;36.72;100091.31;10269985;28;20231;-42
2023/07/08 21:19:58;;;;;;;3.60;2.65;;;;;;;28.27;37.05;100100.28;10264165;28;20261;-42
2023/07/08 21:25:00;;;;;;;4.30;3.00;;;;;;;28.34;37.40;100088.91;10275174;28;20241;-41
2023/07/08 21:30:09;;;;;;;5.68;2.92;;;;;;;28.52;37.05;100092.78;10268703;28;20297;-42
2023/07/08 21:35:11;;;;;;;6.97;3.05;;;;;;;27.59;38.20;100091.22;10275224;28;20285;-42
2023/07/08 21:40:29;;;;;;;4.93;2.83;;;;;;;28.10;37.68;100078.78;10268577;28;20623;-41
2023/07/08 21:45:35;;;;;;;4.63;3.33;;;;;;;27.18;39.06;100093.56;10265913;28;20242;-41
2023/07/08 21:50:57;;;;;;;4.75;2.95;;;;;;;26.72;39.70;100089.22;10266677;28;20321;-41
2023/07/08 21:56:00;;;;;;;5.95;3.03;;;;;;;26.52;40.34;100079.25;10275468;28;20234;-41
2023/07/08 22:01:02;;;;;;;4.22;2.78;;;;;;;26.15;41.18;100103.28;10273955;28;20234;-42
2023/07/08 22:06:04;;;;;;;7.30;3.10;;;;;;;26.40;40.43;100096.03;10269738;28;20242;-42
2023/07/08 22:11:28;;;;;;;7.78;3.35;;;;;;;25.77;41.76;100097.41;10260479;28;20239;-42
2023/07/08 22:16:30;;;;;;;4.90;2.95;;;;;;;26.32;40.30;100100.19;10263893;28;20230;-42
2023/07/08 22:21:38;;;;;;;4.93;2.97;;;;;;;26.46;40.12;100086.66;10270802;28;20227;-41
2023/07/08 22:26:43;;;;;;;6.07;3.22;;;;;;;26.37;39.31;100115.81;10273694;28;20246;-41
2023/07/08 22:31:45;;;;;;;5.93;2.95;;;;;;;27.83;38.13;100082.16;10270923;28;20246;-44
2023/07/08 22:36:47;;;;;;;5.00;3.22;;;;;;;26.44;39.79;100121.81;10272750;28;20230;-42
2023/07/08 22:41:53;;;;;;;4.97;2.80;;;;;;;25.99;40.38;100094.28;10275427;28;20222;-41
2023/07/08 22:46:58;;;;;;;6.63;3.22;;;;;;;25.23;41.77;100103.53;10269417;28;20269;-42
2023/07/08 22:52:02;;;;;;;5.43;2.95;;;;;;;25.90;40.72;100098.72;10273456;28;20238;-42
2023/07/08 22:57:04;;;;;;;7.28;3.67;;;;;;;24.81;42.18;100110.09;10272565;28;20370;-42
2023/07/08 23:02:06;;;;;;;6.22;3.28;;;;;;;24.68;42.38;100108.69;10270387;28;20242;-42
2023/07/08 23:07:10;;;;;;;7.25;3.30;;;;;;;24.99;42.28;100111.47;10275901;28;20230;-42
2023/07/08 23:12:12;;;;;;;6.72;3.90;;;;;;;24.90;42.64;100125.69;10270995;28;20241;-42
2023/07/08 23:17:14;;;;;;;5.13;3.25;;;;;;;24.46;43.47;100112.47;10272354;28;20230;-42
2023/07/08 23:22:19;;;;;;;5.38;3.03;;;;;;;25.48;42.51;100119.09;10278529;28;20662;-40
2023/07/08 23:27:22;;;;;;;6.53;3.65;;;;;;;26.35;40.96;100104.28;10267892;28;20238;-40
2023/07/08 23:32:24;;;;;;;4.45;3.47;;;;;;;25.24;42.60;100146.25;10270267;28;20241;-42